CYNL

METAR CYNL 192300Z AUTO 31011G18KT FEW064 15/02 A3009 RMK AO1 SLP193
METAR
LOCATION
CYNL
DATE - TIME
192300Z
WIND
310 TRUE @ 11 KNOTS GUSTS 18 KNOTS
VISIBILITY
RUNWAY VISUAL RANGE
NOT REPORTED
WEATHER
CLOUDINESS
FEW064
TEMP / DEWPOINT
15 ºC / 2 ºC
ALTIMETER
30.09 in. Hg
RECENT WEATHER
NOT REPORTED
WIND SHEAR
NOT REPORTED
REMARKS
RMK AO1 SLP193
SEA LEVEL PRESSURE: hPa

CYNL

METAR CYNL 192200Z AUTO 33012G19KT CLR 16/04 A3009 RMK AO1 SLP191
METAR
LOCATION
CYNL
DATE - TIME
192200Z
WIND
330 TRUE @ 12 KNOTS GUSTS 19 KNOTS
VISIBILITY
RUNWAY VISUAL RANGE
NOT REPORTED
WEATHER
CLOUDINESS
CLR
TEMP / DEWPOINT
16 ºC / 4 ºC
ALTIMETER
30.09 in. Hg
RECENT WEATHER
NOT REPORTED
WIND SHEAR
NOT REPORTED
REMARKS
RMK AO1 SLP191
SEA LEVEL PRESSURE: hPa

CYNL

SPECI CYNL 192137Z AUTO 34013G19KT CLR 16/04 A3008 RMK AO1 WSHFT (21)37 SLP188
SPECI
LOCATION
CYNL
DATE - TIME
192137Z
WIND
340 TRUE @ 13 KNOTS GUSTS 19 KNOTS
VISIBILITY
RUNWAY VISUAL RANGE
NOT REPORTED
WEATHER
CLOUDINESS
CLR
TEMP / DEWPOINT
16 ºC / 4 ºC
ALTIMETER
30.08 in. Hg
RECENT WEATHER
NOT REPORTED
WIND SHEAR
NOT REPORTED
REMARKS
RMK AO1 WSHFT (21)37 SLP188
SEA LEVEL PRESSURE: hPa

Your time UTC time
 
 
Weather data provided by AXYS Technologies Inc., www.axystechnologies.com
 
Station History